Create Custom Reports and Graphics: Custom Report

AM-Roundhouse Top 7880'

Current Conditions

2/24/24 2:15 AM (-08:00)
Updated Every 15 Minutes
Temp 31.0 °F   4.9
RH 67 %   1
Wet Bulb 27.3 °F   4.6
Dew Pt 21.5 °F   5.1
Wind Spd 1.8 mph   1.2
Wind Dir WNW | 296 °
Wind Gust 4.4 mph   2.0
WindChill 29.8 °F   5.9

Last 6 Hours

AM-Roundhouse Top 7880'

15 Minute Data | America/Los_Angeles
as of 2/24/24 2:23 AM PST
Date & Time Temp (°F) RH (%) Dew Pt (°F) Wet Bulb (°F) Wind Dir (°) Wind Spd (mph) Wind Gust (mph) WindChill (°F)
2/24/24 - 0215 31.0 67 21.5 27.3 WNW | 296 1.8 4.4 29.8
2/24/24 - 0200 30.0 70 21.3 26.6 WNW | 283 0.5 2.4 29.7
2/24/24 - 0145 29.7 72 21.7 26.6 SSW | 193 0.9 3.7 29.4
2/24/24 - 0130 29.9 72 22.0 26.8 SSW | 198 2.6 6.0 28.4
2/24/24 - 0115 30.5 69 21.5 27.0 NNW | 338 0.5 3.0 30.4
2/24/24 - 0100 30.2 67 20.4 26.4 SW | 228 0.4 3.2 30.3
2/24/24 - 0045 30.6 69 21.5 27.0 WNW | 282 1.0 2.9 30.5
2/24/24 - 0030 30.5 69 21.6 27.0 W | 273 1.5 2.9 30.3
2/24/24 - 0015 30.7 68 21.5 27.1 WNW | 286 3.1 6.3 28.5
2/24/24 - 0000 30.8 71 22.5 27.5 W | 271 3.1 7.0 27.5
2/23/24 - 2345 29.6 76 23.1 27.0 S | 185 4.1 8.6 26.1
2/23/24 - 2330 29.9 72 21.8 26.7 WSW | 253 2.0 5.2 29.6
2/23/24 - 2315 30.4 70 21.6 26.9 SW | 217 1.6 4.4 29.8
2/23/24 - 2300 30.6 71 22.2 27.2 SW | 216 3.9 8.2 27.3
2/23/24 - 2245 31.0 71 22.7 27.7 S | 173 3.5 8.3 28.4
2/23/24 - 2230 31.8 69 22.9 28.2 SE | 131 8.4 13.7 24.2
2/23/24 - 2215 31.4 70 22.6 27.9 SSE | 152 7.6 12.6 24.2
2/23/24 - 2200 31.0 71 22.7 27.7 SSE | 167 8.1 14.6 23.7
2/23/24 - 2145 30.9 71 22.5 27.5 SSE | 152 6.6 9.7 24.6
2/23/24 - 2130 30.7 73 23.1 27.6 SSE | 163 7.5 11.2 23.8
2/23/24 - 2115 30.7 75 23.6 27.8 S | 173 8.0 13.5 23.2
2/23/24 - 2100 30.4 78 24.3 27.9 SSE | 164 6.0 9.7 24.2
2/23/24 - 2045 30.3 82 25.4 28.3 ESE | 122 3.8 8.2 27.2
2/23/24 - 2030 30.3 82 25.5 28.3 SSE | 147 4.0 8.0 27.0
Max 31.8 82 25.5 28.3 - 8.4 14.6 30.5
Avg 30.5 72 22.5 27.3 - 3.8 7.4 27.4
Min 29.6 67 20.4 26.4 - 0.4 2.4 23.2

Last 30 Days

AM-Roundhouse Top 7880'

Daily Data | America/Los_Angeles
as of 2/24/24 2:23 AM PST
Date Daily Max Temp (°F) Daily Min Temp (°F) Wind Spd (mph) Daily Max Wind (mph) Max RH (%) Min RH (%) Wet Bulb (°F) MinBV Day (V)
2/23/24 36.1 25.8 5.1 18.6 83 43 27.3 14.6
2/22/24 36.2 19.9 4.6 17.1 98 46 25.3 14.4
2/21/24 29.1 22.4 5.5 27.2 100 85 24.8 14.4
2/20/24 30.3 24.0 10.5 36.9 100 86 25.8 14.3
2/19/24 32.0 25.5 16.2 56.1 100 - 27.8 14.3
2/18/24 35.0 26.1 11.8 47.7 100 71 29.1 14.4
2/17/24 36.2 27.4 11.3 44.4 99 35 28.5 14.4
2/16/24 39.9 24.6 3.9 20.3 100 59 29.4 14.3
2/15/24 27.8 23.5 4.8 21.8 100 98 25.0 14.4
2/14/24 27.5 23.6 8.1 39.7 99 62 24.8 14.7
2/13/24 37.7 25.9 6.6 23.7 91 34 25.3 14.6
2/12/24 45.6 29.7 4.6 17.2 85 12 27.0 14.4
2/11/24 45.8 26.4 2.0 12.5 74 8 26.9 14.5
2/10/24 28.2 14.6 6.9 34.5 95 9 17.2 14.6
2/9/24 28.1 15.4 6.6 22.7 100 83 19.9 14.5
2/8/24 30.0 17.2 3.1 15.8 100 87 21.2 14.4
2/7/24 22.9 19.6 4.6 24.5 100 - 21.2 14.5
2/6/24 30.7 22.9 1.8 11.1 100 92 24.9 14.3
2/5/24 27.4 24.3 12.3 67.2 100 94 25.6 14.4
2/4/24 31.2 20.5 12.9 60.6 100 94 25.8 14.3
2/3/24 23.9 15.4 3.6 20.1 99 92 19.1 14.5
2/2/24 24.4 16.7 3.5 19.1 99 94 21.0 14.5
2/1/24 30.9 21.5 5.0 39.4 99 90 25.9 13.6
1/31/24 40.2 29.8 17.1 49.5 94 38 30.5 14.7
1/30/24 46.5 38.1 10.7 41.3 85 36 35.5 14.9
1/29/24 53.0 40.1 5.7 17.4 73 33 37.7 14.8
1/28/24 53.2 42.2 4.0 13.8 64 42 38.6 14.5
1/27/24 50.9 39.8 2.3 14.9 88 47 38.7 14.4
1/26/24 41.6 30.1 3.3 16.9 96 26 31.7 14.6
1/25/24 31.7 23.2 2.9 11.0 100 36 25.8 14.5
Max 53.2 42.2 17.1 67.2 100 98 38.7 14.9
Avg - - 6.7 - - - 26.9 -
Min 22.9 14.6 1.8 11.0 64 8 17.2 13.6
Calm: 0.0%
Calm: 0.0%